Hlavní strana
METAR-TAF:

METAR-TAF

Letiště :

Mezinárodní letiště Čchung-čching Ťiang-pej

Čchung-čching, Čína

zeměpisná šířka: 29-31N, zeměpisná délka: 106-29E, výška: 351 m

Aktuální stav počasí

Zpráva byla vytvořena před 23 minutami, v 23:00 UTC
vítr z různých směrů 2 kt
Teplota 15°C
Vlhkost vzduchu 94%
Tlak 1019 hPa
Viditelnost: 3000 m
slabý déšť, kouřmo

METAR: ZUCK 152300Z VRB01MPS 3000 -RA BR NSC 15/14 Q1019 TEMPO 2000 -RA BR

Čas: 07:23 (23:23 UTC)

Předpověď počasí

Zpráva byla vytvořena před 8 hodinami a 21 minutami, v 15:02 UTC
Předpověď platná od 15 v 18 UTC do 16 v 18 UTC
Severovýchodní vítr 6 kt
Viditelnost: 5000 m
Polojasno ve výšce 4000 ft
kouřmo
Dočasný
od 15 v 23 UTC do 16 v 03 UTC
Viditelnost: 2400 m
Skoro jasno ve výšce 800 ft
Polojasno ve výšce 3000 ft
Zataženo ve výšce 5000 ft
slabý déšť, kouřmo

TAF: ZUCK 151502Z 1518/1618 04003MPS 5000 BR SCT040 TX18/1607Z TN14/1522Z TEMPO 1523/1603 2400 -RA BR FEW008 SCT030 OVC050

Stav a předpovědi počasí z více než 4 000 letišť (zprávy METAR a TAF).

Červené a žluté tečky na mapě představují dostupné meteorologické stanice.

Když kurzor umístíte na tečku, zobrazí se název stanice.

Pak kliknutím zobrazíte stav a předpověď počasí.

Chcete-li změnit mapu, kliknutím na zelené tlačítko se znaménkem +mapu přiblížíte, kliknutím na zelené tlačítko se znaménkem – mapu oddálíte a kliknutím na zelené šipky přejdete na sousední mapy.


METAR-TAF: